Time;durP1;ratioP1;P1;durP2;ratioP2;P2;SDS_P1;SDS_P2;PMS_P1;PMS_P2;Temp;Humidity;BMP_temperature;BMP_pressure;BME280_temperature;BME280_humidity;BME280_pressure;Samples;Min_cycle;Max_cycle;Signal;HPM_P1;HPM_P2
2022/07/10 00:02:06;;;;;;;4.63;1.48;;;15.20;99.90;;;;;;5050444;28;20211;-74
2022/07/10 00:04:31;;;;;;;3.60;1.10;;;15.30;99.90;;;;;;5068611;28;20206;-74
2022/07/10 00:06:58;;;;;;;3.75;1.63;;;15.30;99.90;;;;;;5070323;28;20588;-75
2022/07/10 00:09:24;;;;;;;7.47;1.48;;;15.30;99.90;;;;;;5052055;28;20171;-74
2022/07/10 00:11:49;;;;;;;3.83;1.38;;;15.30;99.90;;;;;;5070798;28;20182;-75
2022/07/10 00:14:15;;;;;;;4.00;1.42;;;15.40;99.90;;;;;;5070379;28;20203;-75
2022/07/10 00:16:41;;;;;;;6.18;1.55;;;15.30;99.90;;;;;;5068336;28;20215;-75
2022/07/10 00:19:06;;;;;;;6.20;1.92;;;15.40;99.90;;;;;;5050542;28;20877;-75
2022/07/10 00:21:32;;;;;;;6.50;1.30;;;15.40;99.90;;;;;;5050816;28;20192;-73
2022/07/10 00:23:57;;;;;;;3.58;1.08;;;15.50;99.90;;;;;;5036682;28;20191;-74
2022/07/10 00:26:23;;;;;;;6.00;1.75;;;15.40;99.90;;;;;;5053955;28;20206;-74
2022/07/10 00:28:49;;;;;;;5.90;1.40;;;15.50;99.90;;;;;;5053956;28;20257;-74
2022/07/10 00:31:14;;;;;;;6.45;1.95;;;15.40;99.90;;;;;;5036175;28;20260;-75
2022/07/10 00:33:40;;;;;;;6.38;1.77;;;15.40;99.90;;;;;;5053998;28;20718;-74
2022/07/10 00:36:06;;;;;;;8.02;1.65;;;15.50;99.90;;;;;;5054725;28;20255;-75
2022/07/10 00:38:32;;;;;;;4.50;1.70;;;15.40;99.90;;;;;;5053641;28;20214;-74
2022/07/10 00:40:58;;;;;;;6.30;1.50;;;15.50;99.90;;;;;;5053749;28;20211;-74
2022/07/10 00:43:23;;;;;;;6.85;1.55;;;15.40;99.90;;;;;;5053616;28;20245;-75
2022/07/10 00:45:49;;;;;;;5.55;1.50;;;15.40;99.90;;;;;;5053886;28;20578;-75
2022/07/10 00:48:15;;;;;;;6.30;1.35;;;15.30;99.90;;;;;;5054061;28;20209;-74
2022/07/10 00:50:44;;;;;;;7.00;1.45;;;15.30;99.90;;;;;;5053626;28;20204;-74
2022/07/10 00:53:11;;;;;;;6.13;1.58;;;15.40;99.90;;;;;;5053549;28;20207;-74
2022/07/10 00:55:38;;;;;;;7.38;1.52;;;15.30;99.90;;;;;;5053152;28;20215;-74
2022/07/10 00:58:06;;;;;;;3.75;1.38;;;15.30;99.90;;;;;;5053631;28;20606;-74
2022/07/10 01:00:34;;;;;;;6.97;1.65;;;15.30;99.90;;;;;;5053878;28;20734;-74
2022/07/10 01:02:59;;;;;;;2.78;0.90;;;15.30;99.90;;;;;;5059923;28;20211;-74
2022/07/10 01:05:25;;;;;;;5.82;1.20;;;15.30;99.90;;;;;;5073703;28;20261;-74
2022/07/10 01:07:50;;;;;;;9.05;1.58;;;15.20;99.90;;;;;;5055574;28;20313;-75
2022/07/10 01:10:16;;;;;;;3.88;1.40;;;15.20;99.90;;;;;;5073342;28;20202;-74
2022/07/10 01:12:43;;;;;;;4.07;1.30;;;15.30;99.90;;;;;;5073468;28;20259;-74
2022/07/10 01:15:09;;;;;;;5.85;1.00;;;15.20;99.90;;;;;;5073606;28;20679;-74
2022/07/10 01:17:35;;;;;;;4.53;1.70;;;15.20;99.90;;;;;;5064118;28;20235;-74
2022/07/10 01:20:05;;;;;;;3.85;1.25;;;15.20;99.90;;;;;;5052690;28;20684;-74
2022/07/10 01:22:31;;;;;;;3.83;1.00;;;15.20;99.90;;;;;;5052718;28;20215;-74
2022/07/10 01:24:57;;;;;;;4.97;1.42;;;15.20;99.90;;;;;;5035221;28;20242;-74
2022/07/10 01:27:22;;;;;;;8.77;1.48;;;15.20;99.90;;;;;;5052950;28;20207;-74
2022/07/10 01:29:49;;;;;;;6.70;1.20;;;15.10;99.90;;;;;;5053453;28;20258;-76
2022/07/10 01:32:15;;;;;;;4.45;0.85;;;15.10;99.90;;;;;;5052951;28;20587;-74
2022/07/10 01:34:40;;;;;;;4.03;1.30;;;15.10;99.90;;;;;;5051408;28;20295;-71
2022/07/10 01:37:06;;;;;;;3.83;0.73;;;15.10;99.90;;;;;;5052749;28;20719;-74
2022/07/10 01:39:32;;;;;;;3.78;1.02;;;15.10;99.90;;;;;;5034439;28;20195;-74
2022/07/10 01:41:57;;;;;;;3.42;0.90;;;15.10;99.90;;;;;;5035891;28;20695;-74
2022/07/10 01:44:23;;;;;;;4.53;0.95;;;15.10;99.90;;;;;;5052467;28;20212;-74
2022/07/10 01:46:48;;;;;;;4.32;1.25;;;15.00;99.90;;;;;;5053146;28;20756;-74
2022/07/10 01:49:14;;;;;;;2.13;1.15;;;15.10;99.90;;;;;;5052418;28;20204;-74
2022/07/10 01:51:40;;;;;;;3.97;1.27;;;15.10;99.90;;;;;;5052374;28;20294;-74
2022/07/10 01:54:06;;;;;;;3.15;1.10;;;15.00;99.90;;;;;;5079211;22;20215;-72
2022/07/10 01:56:32;;;;;;;2.42;0.98;;;15.00;99.90;;;;;;5066140;28;20705;-72
2022/07/10 01:59:00;;;;;;;2.03;0.90;;;15.00;99.90;;;;;;5071577;28;20200;-72
2022/07/10 02:01:25;;;;;;;3.88;1.48;;;15.00;99.90;;;;;;5054974;28;20221;-71
2022/07/10 02:06:35;;;;;;;8.13;1.05;;;15.00;99.90;;;;;;5072231;28;20186;-71
2022/07/10 02:09:00;;;;;;;4.47;1.10;;;15.00;99.90;;;;;;5054473;28;20171;-71
2022/07/10 02:11:26;;;;;;;3.28;1.25;;;15.10;99.90;;;;;;5065338;28;20625;-71
2022/07/10 02:13:51;;;;;;;4.80;1.52;;;15.10;99.90;;;;;;5051995;28;20215;-71
2022/07/10 02:16:17;;;;;;;2.50;1.08;;;15.00;99.90;;;;;;5051840;28;20257;-71
2022/07/10 02:18:43;;;;;;;5.20;0.93;;;15.00;99.90;;;;;;5051666;28;20246;-72
2022/07/10 02:21:08;;;;;;;5.78;1.52;;;15.00;99.90;;;;;;5052387;28;20687;-72
2022/07/10 02:23:35;;;;;;;5.47;1.35;;;14.90;99.90;;;;;;5051811;28;20631;-72
2022/07/10 02:26:01;;;;;;;5.65;1.77;;;14.90;99.90;;;;;;5051645;28;20206;-71
2022/07/10 02:28:27;;;;;;;4.80;1.30;;;14.90;99.90;;;;;;5051890;28;20206;-72
2022/07/10 02:30:53;;;;;;;3.72;1.27;;;14.90;99.90;;;;;;5047055;28;20207;-71
2022/07/10 02:33:19;;;;;;;5.60;1.05;;;14.90;99.90;;;;;;5051516;28;20229;-72
2022/07/10 02:35:44;;;;;;;4.90;1.00;;;14.80;99.90;;;;;;5046679;28;20272;-71
2022/07/10 02:38:10;;;;;;;2.28;1.00;;;14.80;99.90;;;;;;5071023;28;20280;-71
2022/07/10 02:40:35;;;;;;;5.95;0.93;;;14.70;99.90;;;;;;5071195;28;20227;-72
2022/07/10 02:43:01;;;;;;;6.10;1.30;;;14.70;99.90;;;;;;5071224;28;20214;-72
2022/07/10 02:45:27;;;;;;;5.13;1.17;;;14.60;99.90;;;;;;5070511;28;20198;-72
2022/07/10 02:47:52;;;;;;;5.70;1.10;;;14.60;99.90;;;;;;5071367;28;20815;-72
2022/07/10 02:50:18;;;;;;;2.47;1.08;;;14.60;99.90;;;;;;5070981;28;20230;-71
2022/07/10 02:52:43;;;;;;;3.83;1.15;;;14.60;99.90;;;;;;5070870;28;20225;-71
2022/07/10 02:55:09;;;;;;;7.53;1.85;;;14.60;99.90;;;;;;5071017;28;20598;-71
2022/07/10 02:57:35;;;;;;;4.90;1.10;;;14.50;99.90;;;;;;5052605;28;20691;-71
2022/07/10 03:00:00;;;;;;;5.90;1.65;;;14.50;99.90;;;;;;5070771;28;20250;-71
2022/07/10 03:02:26;;;;;;;4.70;1.08;;;14.50;99.90;;;;;;5069787;28;20671;-71
2022/07/10 03:04:52;;;;;;;3.28;1.10;;;14.50;99.90;;;;;;5071074;28;20207;-72
2022/07/10 03:07:17;;;;;;;3.58;0.85;;;14.60;99.90;;;;;;5070914;28;20195;-72
2022/07/10 03:09:43;;;;;;;4.97;1.83;;;14.60;99.90;;;;;;5070500;28;20199;-71
2022/07/10 03:12:09;;;;;;;6.10;1.20;;;14.60;99.90;;;;;;5053516;28;20560;-72
2022/07/10 03:14:34;;;;;;;4.80;1.60;;;14.50;99.90;;;;;;5052930;28;20210;-72
2022/07/10 03:17:00;;;;;;;3.70;1.00;;;14.50;99.90;;;;;;5070417;28;20199;-72
2022/07/10 03:19:25;;;;;;;4.72;1.20;;;14.60;99.90;;;;;;5070142;28;20245;-72
2022/07/10 03:21:51;;;;;;;2.60;1.17;;;14.60;99.90;;;;;;5070473;28;20215;-71
2022/07/10 03:24:17;;;;;;;6.13;1.58;;;14.60;99.90;;;;;;5071220;28;20340;-71
2022/07/10 03:26:44;;;;;;;4.55;1.17;;;14.50;99.90;;;;;;5070504;28;20666;-70
2022/07/10 03:29:10;;;;;;;7.50;2.88;;;14.60;99.90;;;;;;5070294;28;20203;-71
2022/07/10 03:31:36;;;;;;;3.22;0.95;;;14.50;99.90;;;;;;5069194;28;20233;-71
2022/07/10 03:34:01;;;;;;;6.35;1.10;;;14.60;99.90;;;;;;5070338;28;20569;-71
2022/07/10 03:36:27;;;;;;;5.55;1.70;;;14.50;99.90;;;;;;5070187;28;20220;-71
2022/07/10 03:38:53;;;;;;;5.88;1.30;;;14.50;99.90;;;;;;5052490;28;20190;-71
2022/07/10 03:41:19;;;;;;;4.70;1.55;;;14.60;99.90;;;;;;5070585;28;20254;-71
2022/07/10 03:43:44;;;;;;;6.15;1.95;;;14.60;99.90;;;;;;5070185;28;20230;-71
2022/07/10 03:46:10;;;;;;;3.13;0.90;;;14.70;99.90;;;;;;5070375;28;20233;-71
2022/07/10 03:48:35;;;;;;;4.60;1.23;;;14.60;99.90;;;;;;5051640;28;20183;-71
2022/07/10 03:51:01;;;;;;;3.85;1.17;;;14.60;99.90;;;;;;5070913;28;20167;-72
2022/07/10 03:53:27;;;;;;;3.95;1.13;;;14.60;99.90;;;;;;5069971;28;20199;-71
2022/07/10 03:55:54;;;;;;;4.00;1.00;;;14.50;99.90;;;;;;5069532;28;20704;-71
2022/07/10 03:58:19;;;;;;;2.92;1.13;;;14.50;99.90;;;;;;5069784;28;20198;-71
2022/07/10 04:00:45;;;;;;;4.03;1.25;;;14.60;99.90;;;;;;5051233;28;20203;-71
2022/07/10 04:03:11;;;;;;;2.85;1.10;;;14.50;99.90;;;;;;5052588;28;20289;-71
2022/07/10 04:05:37;;;;;;;3.08;1.15;;;14.50;99.90;;;;;;5070077;28;20207;-70
2022/07/10 04:08:04;;;;;;;3.40;1.05;;;14.50;99.90;;;;;;5069992;28;20241;-71
2022/07/10 04:10:31;;;;;;;3.17;1.23;;;14.60;99.90;;;;;;5069984;28;20207;-71
2022/07/10 04:12:57;;;;;;;3.63;1.58;;;14.60;99.90;;;;;;5069966;28;20700;-71
2022/07/10 04:15:23;;;;;;;5.97;1.80;;;14.70;99.90;;;;;;5069561;28;20627;-71
2022/07/10 04:17:49;;;;;;;6.88;2.30;;;14.80;99.90;;;;;;5070759;28;20175;-71
2022/07/10 04:20:16;;;;;;;5.13;1.55;;;14.90;99.90;;;;;;5069930;28;20280;-71
2022/07/10 04:22:41;;;;;;;5.97;1.30;;;14.80;99.90;;;;;;5069557;28;20337;-71
2022/07/10 04:25:08;;;;;;;4.22;1.30;;;14.80;99.90;;;;;;5051931;28;20285;-71
2022/07/10 04:27:34;;;;;;;4.10;1.17;;;14.80;99.90;;;;;;5069483;28;20183;-72
2022/07/10 04:30:00;;;;;;;3.00;1.30;;;14.70;99.90;;;;;;5065458;28;20178;-72
2022/07/10 04:32:27;;;;;;;3.15;1.50;;;14.70;99.90;;;;;;5069634;28;20290;-71
2022/07/10 04:34:53;;;;;;;3.20;0.80;;;14.70;99.90;;;;;;5069723;28;20203;-72
2022/07/10 04:37:19;;;;;;;6.30;1.65;;;14.70;99.90;;;;;;5069954;28;20756;-72
2022/07/10 04:39:44;;;;;;;7.80;1.70;;;14.70;99.90;;;;;;5069356;28;20214;-71
2022/07/10 04:42:10;;;;;;;4.38;1.83;;;14.60;99.90;;;;;;5070335;28;20187;-72
2022/07/10 04:44:36;;;;;;;2.88;1.48;;;14.80;99.90;;;;;;5069180;28;20657;-70
2022/07/10 04:47:03;;;;;;;2.63;1.10;;;14.80;99.90;;;;;;5069821;28;20222;-71
2022/07/10 04:49:28;;;;;;;4.85;1.42;;;15.00;99.90;;;;;;5066731;28;20230;-71
2022/07/10 04:51:55;;;;;;;6.30;1.25;;;14.90;99.90;;;;;;5069948;28;20660;-72
2022/07/10 04:54:20;;;;;;;5.80;1.40;;;15.10;99.90;;;;;;5069690;28;20207;-72
2022/07/10 04:56:46;;;;;;;6.95;1.48;;;15.30;99.90;;;;;;5052067;28;20650;-71
2022/07/10 04:59:11;;;;;;;5.10;1.10;;;15.30;99.90;;;;;;5069162;28;20231;-71
2022/07/10 05:01:37;;;;;;;3.40;1.33;;;15.40;99.90;;;;;;5069595;28;20227;-71
2022/07/10 05:04:03;;;;;;;5.20;1.65;;;15.30;99.90;;;;;;5069382;28;20232;-72
2022/07/10 05:06:29;;;;;;;5.13;1.52;;;15.30;99.90;;;;;;5069617;28;20260;-72
2022/07/10 05:08:55;;;;;;;2.67;1.23;;;15.40;99.90;;;;;;5072577;28;20199;-71
2022/07/10 05:11:21;;;;;;;3.35;2.13;;;15.30;99.90;;;;;;5055255;28;20203;-71
2022/07/10 05:13:48;;;;;;;6.57;1.48;;;15.30;99.90;;;;;;5055064;28;20238;-71
2022/07/10 05:16:14;;;;;;;3.58;1.45;;;15.20;99.90;;;;;;5073515;28;20207;-71
2022/07/10 05:18:40;;;;;;;6.25;1.45;;;15.30;99.90;;;;;;5054683;28;20222;-71
2022/07/10 05:21:06;;;;;;;4.97;1.75;;;15.10;99.90;;;;;;5073604;28;20171;-72
2022/07/10 05:23:31;;;;;;;6.10;2.42;;;15.20;99.90;;;;;;5072781;28;20207;-71
2022/07/10 05:25:57;;;;;;;6.82;3.15;;;15.30;99.90;;;;;;5072995;28;20317;-71
2022/07/10 05:28:23;;;;;;;8.55;1.80;;;15.40;99.90;;;;;;5054240;28;20195;-71
2022/07/10 05:30:48;;;;;;;6.78;1.50;;;15.60;99.90;;;;;;5072921;28;20256;-71
2022/07/10 05:33:15;;;;;;;5.95;1.50;;;15.80;99.90;;;;;;5081258;28;20234;-71
2022/07/10 05:35:41;;;;;;;6.00;1.52;;;15.80;99.90;;;;;;5089283;28;20203;-71
2022/07/10 05:38:06;;;;;;;5.30;1.40;;;15.70;99.90;;;;;;5080614;28;20344;-71
2022/07/10 05:40:32;;;;;;;4.05;1.52;;;15.70;99.90;;;;;;5072572;28;20575;-72
2022/07/10 05:42:57;;;;;;;7.85;1.60;;;15.80;99.90;;;;;;5054448;28;20579;-72
2022/07/10 05:45:23;;;;;;;8.40;1.70;;;15.80;99.90;;;;;;5054422;28;20238;-71
2022/07/10 05:47:49;;;;;;;8.75;1.67;;;15.80;99.90;;;;;;5073107;28;20175;-71
2022/07/10 05:50:14;;;;;;;6.25;1.48;;;15.90;99.90;;;;;;5054174;28;20231;-72
2022/07/10 05:52:40;;;;;;;4.22;1.50;;;16.00;99.90;;;;;;5054551;28;20970;-71
2022/07/10 05:55:07;;;;;;;5.68;1.52;;;16.00;99.90;;;;;;5072124;28;20255;-72
2022/07/10 05:57:33;;;;;;;5.57;2.13;;;16.00;99.90;;;;;;5054167;28;20179;-72
2022/07/10 05:59:58;;;;;;;8.10;1.83;;;15.90;99.90;;;;;;5072569;28;20167;-71
2022/07/10 06:02:24;;;;;;;4.00;1.38;;;15.60;99.90;;;;;;5072216;28;20256;-71
2022/07/10 06:04:50;;;;;;;4.75;1.40;;;15.60;99.90;;;;;;5072261;28;20210;-72
2022/07/10 06:07:16;;;;;;;5.25;1.63;;;15.60;99.90;;;;;;5072242;28;20298;-72
2022/07/10 06:09:42;;;;;;;3.08;1.50;;;15.60;99.90;;;;;;5071823;28;20268;-72
2022/07/10 06:12:08;;;;;;;5.45;1.20;;;15.60;99.90;;;;;;5072691;28;20700;-71
2022/07/10 06:14:34;;;;;;;5.53;1.58;;;15.70;99.90;;;;;;5071795;28;20214;-72
2022/07/10 06:16:59;;;;;;;5.50;1.80;;;15.70;99.90;;;;;;5072114;28;20210;-72
2022/07/10 06:19:25;;;;;;;7.40;1.83;;;15.70;99.90;;;;;;5052646;28;20206;-72
2022/07/10 06:22:30;;;;;;;6.18;2.08;;;15.70;99.90;;;;;;5071831;28;20214;-72
2022/07/10 06:24:37;;;;;;;6.85;1.67;;;15.70;99.90;;;;;;5071200;28;20198;-70
2022/07/10 06:27:02;;;;;;;8.65;3.63;;;15.80;99.90;;;;;;5072499;28;20267;-71
2022/07/10 06:29:28;;;;;;;5.07;1.70;;;15.90;99.90;;;;;;5071385;28;20297;-72
2022/07/10 06:31:54;;;;;;;7.13;1.45;;;16.00;99.90;;;;;;5071542;28;20206;-71
2022/07/10 06:34:20;;;;;;;8.55;1.60;;;16.20;99.90;;;;;;5071706;28;20688;-72
2022/07/10 06:36:45;;;;;;;7.10;2.03;;;16.20;99.90;;;;;;5062885;28;20253;-71
2022/07/10 06:39:11;;;;;;;7.05;1.80;;;16.40;99.90;;;;;;5071754;28;20171;-71
2022/07/10 06:41:36;;;;;;;4.90;1.52;;;16.40;99.90;;;;;;5071318;28;20214;-70
2022/07/10 06:44:03;;;;;;;6.38;2.38;;;16.10;99.90;;;;;;5053470;28;20203;-72
2022/07/10 06:46:28;;;;;;;5.82;1.80;;;16.10;99.90;;;;;;5071293;28;20290;-72
2022/07/10 06:48:54;;;;;;;6.88;1.77;;;15.90;99.90;;;;;;5071163;28;20287;-70
2022/07/10 06:51:20;;;;;;;8.63;1.90;;;15.90;99.90;;;;;;5071262;28;20262;-72
2022/07/10 06:53:45;;;;;;;6.22;1.67;;;16.00;99.90;;;;;;5053375;28;20175;-71
2022/07/10 06:56:12;;;;;;;5.43;1.88;;;16.10;99.90;;;;;;5071002;28;20290;-72
2022/07/10 06:58:37;;;;;;;7.68;1.55;;;16.40;99.90;;;;;;5070774;28;20211;-70
2022/07/10 07:01:03;;;;;;;6.47;1.63;;;16.60;99.90;;;;;;5070971;28;20199;-72
2022/07/10 07:03:28;;;;;;;7.18;1.50;;;16.80;99.90;;;;;;5070828;28;20207;-71
2022/07/10 07:05:54;;;;;;;7.90;1.77;;;17.00;99.90;;;;;;5071257;28;20736;-72
2022/07/10 07:08:19;;;;;;;7.75;1.98;;;17.20;99.90;;;;;;5070377;28;20692;-71
2022/07/10 07:10:45;;;;;;;4.60;1.52;;;16.90;99.90;;;;;;5070757;28;20286;-71
2022/07/10 07:13:11;;;;;;;4.53;1.42;;;16.90;99.90;;;;;;5070991;28;20668;-72
2022/07/10 07:15:41;;;;;;;5.43;1.48;;;16.90;99.90;;;;;;5070771;28;20226;-69
2022/07/10 07:18:07;;;;;;;4.85;1.85;;;17.00;99.90;;;;;;5071050;28;20178;-71
2022/07/10 07:23:18;;;;;;;3.50;1.88;;;17.10;99.90;;;;;;5070662;28;20392;-72
2022/07/10 07:25:46;;;;;;;5.60;1.80;;;17.30;99.90;;;;;;5070668;28;20759;-71
2022/07/10 07:28:15;;;;;;;6.30;1.95;;;17.70;99.90;;;;;;5070444;28;20203;-72
2022/07/10 07:30:44;;;;;;;5.55;2.00;;;18.00;99.90;;;;;;5070883;28;20206;-72
2022/07/10 07:33:09;;;;;;;4.00;1.65;;;18.20;99.90;;;;;;5052884;28;20640;-72
2022/07/10 07:35:35;;;;;;;10.52;2.25;;;18.50;99.90;;;;;;5070398;28;20210;-72
2022/07/10 07:38:02;;;;;;;5.97;1.65;;;18.70;99.90;;;;;;5070493;28;20199;-72
2022/07/10 07:40:28;;;;;;;9.98;2.30;;;19.10;99.90;;;;;;5052463;28;20268;-72
2022/07/10 07:42:54;;;;;;;10.40;2.25;;;19.30;99.90;;;;;;5070558;28;20693;-72
2022/07/10 07:45:22;;;;;;;7.55;2.15;;;19.40;99.90;;;;;;5052545;28;20286;-72
2022/07/10 07:47:59;;;;;;;5.93;2.88;;;20.10;99.90;;;;;;5070812;28;20613;-71
2022/07/10 07:50:31;;;;;;;8.60;1.80;;;22.50;99.90;;;;;;5067228;28;20229;-72
2022/07/10 07:52:56;;;;;;;5.28;1.30;;;24.60;99.90;;;;;;5070799;28;20257;-73
2022/07/10 07:55:22;;;;;;;4.63;2.08;;;26.00;99.90;;;;;;5074848;22;20227;-70
2022/07/10 07:57:51;;;;;;;5.03;1.60;;;27.10;99.90;;;;;;5058254;28;20207;-73
2022/07/10 08:00:17;;;;;;;7.90;2.63;;;28.50;99.20;;;;;;5066157;28;20519;-70
2022/07/10 08:02:42;;;;;;;4.05;1.70;;;28.80;94.70;;;;;;5052391;28;20301;-71
2022/07/10 08:05:09;;;;;;;3.85;2.03;;;28.70;92.40;;;;;;5067635;28;20219;-71
2022/07/10 08:07:40;;;;;;;4.20;2.13;;;27.70;92.70;;;;;;5052189;28;20294;-72
2022/07/10 08:10:08;;;;;;;4.70;1.73;;;26.60;94.80;;;;;;5070393;28;20203;-71
2022/07/10 08:12:34;;;;;;;4.53;1.70;;;24.90;96.90;;;;;;5063847;28;20286;-72
2022/07/10 08:14:59;;;;;;;5.13;1.83;;;23.80;99.90;;;;;;5070934;28;20679;-71
2022/07/10 08:17:26;;;;;;;5.57;2.17;;;22.20;99.90;;;;;;5069911;28;20671;-72
2022/07/10 08:19:51;;;;;;;6.38;2.20;;;21.40;99.90;;;;;;5060758;28;20198;-71
2022/07/10 08:22:17;;;;;;;6.35;2.85;;;20.70;99.90;;;;;;5069889;28;20298;-71
2022/07/10 08:24:42;;;;;;;5.18;2.60;;;19.70;99.90;;;;;;5069985;28;20213;-71
2022/07/10 08:27:08;;;;;;;9.35;3.33;;;19.40;99.90;;;;;;5070349;28;20171;-71
2022/07/10 08:29:34;;;;;;;6.50;1.92;;;19.20;99.90;;;;;;5063938;28;20261;-71
2022/07/10 08:31:59;;;;;;;7.80;2.08;;;18.90;99.90;;;;;;5069817;28;20238;-71
2022/07/10 08:34:26;;;;;;;7.43;2.03;;;18.80;99.90;;;;;;5051772;28;20206;-70
2022/07/10 08:36:51;;;;;;;8.25;1.90;;;18.70;99.90;;;;;;5070022;28;20680;-71
2022/07/10 08:39:20;;;;;;;4.38;1.65;;;19.70;99.90;;;;;;5070196;28;20171;-72
2022/07/10 08:41:49;;;;;;;8.63;2.15;;;20.00;99.90;;;;;;5070164;28;20676;-72
2022/07/10 08:44:16;;;;;;;6.88;1.85;;;19.80;99.90;;;;;;5073183;28;20240;-70
2022/07/10 08:46:42;;;;;;;7.18;2.38;;;19.60;99.90;;;;;;5055536;28;20207;-71
2022/07/10 08:49:13;;;;;;;5.15;1.45;;;19.60;99.90;;;;;;5069086;28;20297;-70
2022/07/10 08:51:54;;;;;;;6.60;1.42;;;19.70;99.90;;;;;;5070979;28;20568;-69
2022/07/10 08:54:20;;;;;;;8.15;2.00;;;19.90;99.90;;;;;;5070192;28;20171;-71
2022/07/10 08:56:47;;;;;;;7.20;2.40;;;19.80;99.90;;;;;;5073770;28;20194;-70
2022/07/10 08:59:14;;;;;;;4.63;1.70;;;19.30;99.90;;;;;;5073112;28;20671;-72
2022/07/10 09:01:40;;;;;;;8.35;1.88;;;19.20;99.90;;;;;;5073295;28;20221;-70
2022/07/10 09:04:05;;;;;;;11.55;1.88;;;19.20;99.90;;;;;;5068793;28;20282;-69
2022/07/10 09:06:31;;;;;;;8.10;2.20;;;19.00;99.90;;;;;;5073253;28;20218;-71
2022/07/10 09:08:59;;;;;;;8.88;2.28;;;19.00;99.90;;;;;;5073568;28;20174;-71
2022/07/10 09:11:28;;;;;;;5.07;2.20;;;19.00;99.90;;;;;;5073119;28;20202;-71
2022/07/10 09:13:57;;;;;;;8.60;2.55;;;19.20;99.90;;;;;;5073090;28;20210;-71
2022/07/10 09:16:26;;;;;;;7.70;2.25;;;19.30;99.90;;;;;;5073100;28;20317;-71
2022/07/10 09:18:53;;;;;;;5.53;1.92;;;20.20;99.90;;;;;;5068736;28;20199;-71
2022/07/10 09:21:19;;;;;;;5.63;1.40;;;20.60;99.90;;;;;;5073061;28;20197;-70
2022/07/10 09:23:44;;;;;;;6.47;1.88;;;20.30;99.90;;;;;;5055625;28;20600;-72
2022/07/10 09:26:10;;;;;;;5.05;1.95;;;20.40;99.90;;;;;;5072702;28;20203;-72
2022/07/10 09:28:35;;;;;;;4.45;2.20;;;20.50;99.90;;;;;;5072655;28;20199;-72
2022/07/10 09:31:01;;;;;;;6.00;2.08;;;20.50;99.90;;;;;;5055026;28;20206;-72
2022/07/10 09:33:30;;;;;;;7.32;1.90;;;20.60;99.90;;;;;;5073088;28;20172;-71
2022/07/10 09:36:14;;;;;;;7.20;1.98;;;20.80;99.90;;;;;;5073371;28;20286;-72
2022/07/10 09:38:42;;;;;;;11.88;4.00;;;20.70;99.90;;;;;;5072427;28;20626;-71
2022/07/10 09:41:28;;;;;;;7.05;1.85;;;20.30;99.90;;;;;;5072976;28;20226;-71
2022/07/10 09:44:03;;;;;;;8.88;2.42;;;19.80;99.90;;;;;;5072952;28;20550;-72
2022/07/10 09:46:36;;;;;;;7.80;2.08;;;19.30;99.90;;;;;;5072533;28;20297;-72
2022/07/10 09:49:08;;;;;;;4.88;2.00;;;18.90;99.90;;;;;;5068130;28;20583;-72
2022/07/10 09:51:36;;;;;;;8.07;1.90;;;18.70;99.90;;;;;;5072591;28;20258;-71
2022/07/10 09:54:05;;;;;;;6.82;2.20;;;18.80;99.90;;;;;;5071890;28;20233;-71
2022/07/10 09:56:42;;;;;;;13.95;3.70;;;18.80;99.90;;;;;;5054091;28;20226;-72
2022/07/10 09:59:31;;;;;;;5.85;1.70;;;18.80;99.90;;;;;;5072254;28;20210;-71
2022/07/10 10:02:00;;;;;;;7.15;1.95;;;19.00;99.90;;;;;;5072391;28;20294;-72
2022/07/10 10:04:28;;;;;;;5.25;1.95;;;19.10;99.90;;;;;;5067409;28;20285;-71
2022/07/10 10:06:58;;;;;;;10.80;2.75;;;19.10;99.90;;;;;;5072312;28;20678;-72
2022/07/10 10:09:33;;;;;;;8.13;2.28;;;19.10;99.90;;;;;;5053946;28;20175;-71
2022/07/10 10:12:10;;;;;;;7.55;2.05;;;19.10;99.90;;;;;;5072714;28;20271;-72
2022/07/10 10:14:38;;;;;;;8.88;2.30;;;19.20;99.90;;;;;;5071816;28;20587;-71
2022/07/10 10:17:05;;;;;;;5.47;1.30;;;19.30;99.90;;;;;;5072151;28;20214;-71
2022/07/10 10:22:18;;;;;;;7.38;2.38;;;19.40;99.90;;;;;;5072021;28;20265;-72
2022/07/10 10:24:45;;;;;;;4.47;1.52;;;19.40;99.90;;;;;;5071544;28;20633;-71
2022/07/10 10:27:11;;;;;;;6.25;2.72;;;19.30;99.90;;;;;;5071092;28;20635;-71
2022/07/10 10:29:38;;;;;;;5.10;1.60;;;19.30;99.90;;;;;;5071563;28;20211;-71
2022/07/10 10:32:04;;;;;;;4.47;1.50;;;19.30;99.90;;;;;;5071762;28;20207;-72
2022/07/10 10:34:55;;;;;;;6.03;2.13;;;19.60;99.90;;;;;;5071384;28;20256;-72
2022/07/10 10:37:27;;;;;;;5.85;2.08;;;19.80;99.90;;;;;;5071415;28;20226;-71
2022/07/10 10:39:53;;;;;;;6.97;2.13;;;20.20;99.90;;;;;;5053626;28;20747;-72
2022/07/10 10:42:43;;;;;;;5.97;1.90;;;20.40;99.90;;;;;;5054984;28;20199;-72
2022/07/10 10:45:31;;;;;;;5.28;1.73;;;20.50;99.90;;;;;;5072124;28;20194;-72
2022/07/10 10:48:08;;;;;;;7.22;1.90;;;20.60;99.90;;;;;;5070979;28;20203;-72
2022/07/10 10:50:42;;;;;;;10.88;4.43;;;20.50;99.90;;;;;;5069545;28;20264;-73
2022/07/10 10:53:20;;;;;;;6.20;1.42;;;20.60;99.90;;;;;;5071320;28;20707;-73
2022/07/10 10:56:07;;;;;;;4.65;1.50;;;20.70;99.90;;;;;;5071345;28;20242;-78
2022/07/10 10:58:42;;;;;;;5.28;1.90;;;20.70;99.90;;;;;;5053087;28;20292;-71
2022/07/10 11:01:20;;;;;;;5.90;2.63;;;20.80;99.90;;;;;;5071252;28;20277;-71
2022/07/10 11:04:04;;;;;;;3.97;1.65;;;20.90;99.90;;;;;;5066590;28;20203;-70
2022/07/10 11:06:40;;;;;;;5.15;3.10;;;21.00;99.90;;;;;;5070567;28;20199;-72
2022/07/10 11:09:33;;;;;;;8.70;3.45;;;20.80;99.90;;;;;;5071600;28;20185;-72
2022/07/10 11:12:00;;;;;;;8.77;1.90;;;20.70;99.90;;;;;;5071145;28;20774;-73
2022/07/10 11:14:28;;;;;;;6.18;2.10;;;20.50;99.90;;;;;;5070769;28;20224;-71
2022/07/10 11:16:55;;;;;;;4.97;2.17;;;20.20;99.90;;;;;;5070879;28;20214;-70
2022/07/10 11:19:23;;;;;;;6.13;2.03;;;20.10;99.90;;;;;;5061174;28;20279;-72
2022/07/10 11:22:09;;;;;;;4.68;1.90;;;19.90;99.90;;;;;;5070606;28;20239;-72
2022/07/10 11:24:59;;;;;;;6.18;1.70;;;20.40;99.90;;;;;;5052797;28;20202;-71
2022/07/10 11:27:55;;;;;;;7.40;2.30;;;20.60;99.90;;;;;;5070509;28;20186;-70
2022/07/10 11:30:21;;;;;;;10.18;2.58;;;21.00;99.90;;;;;;5070659;28;20175;-72
2022/07/10 11:32:48;;;;;;;11.63;6.13;;;21.10;99.90;;;;;;5053258;28;20167;-71
2022/07/10 11:35:13;;;;;;;8.70;2.40;;;21.10;99.90;;;;;;5070810;28;20706;-72
2022/07/10 11:37:52;;;;;;;5.40;2.10;;;21.20;99.90;;;;;;5070150;28;20211;-71
2022/07/10 11:40:19;;;;;;;7.20;2.05;;;21.30;99.90;;;;;;5070765;28;20199;-72
2022/07/10 11:42:49;;;;;;;5.80;1.70;;;21.30;99.90;;;;;;5070264;28;20225;-72
2022/07/10 11:45:23;;;;;;;7.85;2.10;;;21.50;99.90;;;;;;5053407;28;20202;-72
2022/07/10 11:47:48;;;;;;;7.93;2.10;;;21.60;99.90;;;;;;5037082;28;20303;-72
2022/07/10 11:50:14;;;;;;;5.93;1.90;;;21.50;99.90;;;;;;5065969;28;20289;-71
2022/07/10 11:52:40;;;;;;;6.53;1.88;;;21.30;99.90;;;;;;5052309;28;20214;-71
2022/07/10 11:55:20;;;;;;;9.55;2.90;;;21.40;99.90;;;;;;5070324;28;20211;-69
2022/07/10 11:57:48;;;;;;;5.55;1.70;;;21.20;99.90;;;;;;5053821;28;20289;-69
2022/07/10 12:00:29;;;;;;;6.60;1.90;;;20.60;99.90;;;;;;5052869;28;20213;-73
2022/07/10 12:02:56;;;;;;;7.70;1.90;;;20.20;99.90;;;;;;5052542;28;20751;-73
2022/07/10 12:05:31;;;;;;;7.13;2.55;;;19.90;99.90;;;;;;5052171;28;20219;-70
2022/07/10 12:07:56;;;;;;;7.97;2.33;;;20.00;99.90;;;;;;5070018;28;20202;-71
2022/07/10 12:10:26;;;;;;;5.78;2.45;;;20.00;99.90;;;;;;5052228;28;20203;-70
2022/07/10 12:12:52;;;;;;;6.57;2.20;;;20.10;99.90;;;;;;5051840;28;20207;-72
2022/07/10 12:15:38;;;;;;;7.20;1.65;;;20.50;99.90;;;;;;5070543;28;20277;-72
2022/07/10 12:18:05;;;;;;;7.32;2.08;;;20.20;99.90;;;;;;5070001;28;20174;-70
2022/07/10 12:20:32;;;;;;;4.03;1.50;;;20.10;99.90;;;;;;5072069;28;20825;-72
2022/07/10 12:22:57;;;;;;;6.07;1.67;;;20.20;99.90;;;;;;5056183;28;20586;-70
2022/07/10 12:25:24;;;;;;;6.43;1.65;;;20.20;99.90;;;;;;5073907;28;20203;-71
2022/07/10 12:27:56;;;;;;;5.57;1.67;;;20.10;99.90;;;;;;5074109;28;20202;-71
2022/07/10 12:30:21;;;;;;;4.75;1.70;;;20.00;99.90;;;;;;5055734;28;20178;-70
2022/07/10 12:32:47;;;;;;;7.82;1.77;;;20.00;99.90;;;;;;5074448;28;20171;-71
2022/07/10 12:35:15;;;;;;;6.45;1.63;;;20.00;99.90;;;;;;5073937;28;20209;-72
2022/07/10 12:37:50;;;;;;;6.88;2.53;;;20.10;99.90;;;;;;5073731;28;21563;-72
2022/07/10 12:40:34;;;;;;;7.43;1.73;;;20.50;99.90;;;;;;5073893;28;20203;-72
2022/07/10 12:43:05;;;;;;;6.43;1.83;;;20.70;99.90;;;;;;5073660;28;20207;-71
2022/07/10 12:45:30;;;;;;;5.22;1.58;;;20.90;99.90;;;;;;5073697;28;20198;-69
2022/07/10 12:47:56;;;;;;;2.97;1.45;;;21.00;99.90;;;;;;5073119;28;20284;-71
2022/07/10 12:50:25;;;;;;;5.32;1.60;;;21.00;99.90;;;;;;5069848;28;20214;-70
2022/07/10 12:53:07;;;;;;;5.72;1.50;;;21.10;99.90;;;;;;5073776;28;20286;-71
2022/07/10 12:55:38;;;;;;;4.95;1.38;;;21.10;99.90;;;;;;5073319;28;20692;-71
2022/07/10 12:58:09;;;;;;;4.43;1.10;;;21.30;99.90;;;;;;5073921;28;20203;-68